Date,TemperatureHighF,TemperatureAvgF,TemperatureLowF,DewpointHighF,DewpointAvgF,DewpointLowF,HumidityHigh,HumidityAvg,HumidityLow,PressureMaxIn,PressureMinIn,WindSpeedMaxMPH,WindSpeedAvgMPH,GustSpeedMaxMPH,PrecipitationSumIn
2013-8-1,85.0,75.4,69.0,73.0,69.4,66.0,100,84,62,0.00,40.00,6,4,13,0.02
2013-8-2,87.0,76.6,68.0,69.0,65.9,63.0,86,71,49,0.00,40.00,7,4,15,0.01
2013-8-3,85.0,79.3,74.0,74.0,71.0,68.0,89,76,68,0.00,40.00,4,2,7,0.00
2013-8-4,85.0,76.8,70.0,73.0,69.4,61.0,97,79,60,0.00,40.00,7,4,15,0.00
2013-8-5,86.0,75.8,65.0,68.0,62.7,58.0,83,65,43,0.00,40.00,7,4,14,0.00
2013-8-6,83.0,75.1,69.0,75.0,67.4,62.0,97,78,65,0.00,40.00,7,3,16,0.37
2013-8-7,80.0,72.6,70.0,77.0,71.1,69.0,100,96,87,0.00,40.00,8,5,14,0.72
2013-8-8,84.0,74.2,70.0,76.0,71.5,68.0,100,92,73,0.00,40.00,8,5,17,0.32
2013-8-9,87.0,77.4,72.0,76.0,73.1,69.0,100,88,65,0.00,40.00,6,5,14,0.32
2013-8-10,85.0,76.8,71.0,76.0,73.0,68.0,96,88,71,0.00,40.00,8,4,16,1.50
2013-8-11,83.0,75.0,71.0,75.0,71.9,69.0,100,91,73,0.00,40.00,5,4,9,0.43
2013-8-12,84.0,76.4,72.0,79.0,72.8,70.0,100,89,70,0.00,40.00,6,3,10,0.78
2013-8-13,87.0,75.2,70.0,76.0,69.4,-99.9,100,86,63,0.00,40.00,6,4,13,0.64
2013-8-14,78.0,71.4,67.0,68.0,64.4,57.0,96,79,59,0.00,40.00,7,5,16,0.07
2013-8-15,74.0,62.4,62.0,64.0,47.8,-99.9,87,71,61,0.00,40.00,10,5,17,0.00
2013-8-16,68.0,63.0,62.0,63.0,55.0,-99.9,93,82,76,0.00,40.00,8,5,14,0.00
2013-8-17,67.0,64.4,63.0,64.0,61.4,59.0,100,90,81,0.00,40.00,7,5,14,0.02
2013-8-18,72.0,66.5,63.0,70.0,63.8,-99.9,100,94,85,0.00,40.00,8,6,14,0.40
2013-8-19,80.0,66.8,66.0,72.0,59.1,-99.9,100,91,71,0.00,40.00,9,4,16,1.01
2013-8-20,80.0,71.9,68.0,72.0,67.1,-99.9,98,89,73,0.00,40.00,8,6,14,0.03
2013-8-21,82.0,73.9,71.0,74.0,71.1,70.0,99,91,76,0.00,40.00,9,5,13,0.00
2013-8-22,82.0,75.2,70.0,73.0,71.5,70.0,100,89,70,0.00,40.00,5,3,9,0.01
2013-8-23,87.0,77.6,70.0,73.0,69.8,66.0,98,79,56,0.00,40.00,6,3,12,0.01
2013-8-24,83.0,74.2,67.0,70.0,67.5,65.0,99,81,62,0.00,40.00,9,6,16,0.00
2013-8-25,82.0,72.8,67.0,67.0,59.5,-99.9,84,66,52,0.00,40.00,9,6,16,0.00
2013-8-26,81.0,73.6,66.0,64.0,60.3,57.0,77,63,53,0.00,40.00,7,3,12,0.00
2013-8-27,85.0,82.0,78.0,68.0,66.0,64.0,63,59,54,0.00,40.00,5,4,13,0.00
2013-8-28,87.0,82.5,76.0,73.0,70.9,68.0,83,69,59,0.00,40.00,4,2,10,0.00
2013-8-29,91.0,79.2,73.0,77.0,71.2,68.0,88,77,59,0.00,40.00,5,3,9,0.04
2013-8-30,84.0,76.5,71.0,76.0,71.0,67.0,97,84,71,0.00,40.00,7,4,14,0.73
2013-8-31,88.0,78.0,71.0,77.0,72.2,67.0,99,84,62,0.00,40.00,8,4,12,0.83